createdAt,value
2023-01-18T00:01:37.894Z,99222.47
2023-01-18T00:04:08.336Z,99217.75
2023-01-18T00:06:37.283Z,99249.31
2023-01-18T00:09:06.269Z,99251.50
2023-01-18T00:11:35.330Z,99138.59
2023-01-18T00:14:04.662Z,99248.56
2023-01-18T00:16:34.410Z,99256.41
2023-01-18T00:19:03.368Z,99253.41
2023-01-18T00:21:34.765Z,99240.88
2023-01-18T00:24:03.992Z,99204.50
2023-01-18T00:26:33.113Z,99260.06
2023-01-18T00:29:02.071Z,99227.09
2023-01-18T00:31:31.741Z,99250.22
2023-01-18T00:34:00.862Z,99249.31
2023-01-18T00:36:32.040Z,99255.53
2023-01-18T00:39:02.376Z,99234.41
2023-01-18T00:41:31.640Z,99246.91
2023-01-18T00:43:59.665Z,99228.41
2023-01-18T00:46:28.810Z,99240.31
2023-01-18T00:48:59.169Z,99211.97
2023-01-18T00:51:28.163Z,99217.94
2023-01-18T00:53:57.242Z,99220.09
2023-01-18T00:56:28.807Z,99230.66
2023-01-18T00:58:57.809Z,99166.28
2023-01-18T01:01:27.030Z,99193.63
2023-01-18T01:04:14.111Z,99236.47
2023-01-18T01:06:46.783Z,99234.81
2023-01-18T01:09:19.179Z,99205.59
2023-01-18T01:12:08.422Z,99230.53
2023-01-18T01:14:57.345Z,99203.34
2023-01-18T01:17:44.362Z,99208.22
2023-01-18T01:20:31.637Z,99187.81
2023-01-18T01:23:27.883Z,99211.28
2023-01-18T01:26:09.310Z,99205.94
2023-01-18T01:28:42.189Z,99191.94
2023-01-18T01:31:12.784Z,99194.16
2023-01-18T01:33:43.089Z,99206.66
2023-01-18T01:36:14.930Z,99208.59
2023-01-18T01:38:44.514Z,99214.63
2023-01-18T01:41:17.501Z,99217.06
2023-01-18T01:43:49.787Z,99175.91
2023-01-18T01:46:30.887Z,99189.44
2023-01-18T01:49:06.310Z,99187.75
2023-01-18T01:51:37.533Z,99178.75
2023-01-18T01:54:11.482Z,99125.81
2023-01-18T01:56:42.324Z,99187.59
2023-01-18T01:59:13.099Z,99178.13
2023-01-18T02:01:44.589Z,99185.56
2023-01-18T02:04:17.336Z,99184.22
2023-01-18T02:06:46.627Z,99151.66
2023-01-18T02:09:21.375Z,99194.66
2023-01-18T02:11:52.839Z,99161.66
2023-01-18T02:14:27.664Z,99181.31
2023-01-18T02:17:10.077Z,99182.06
2023-01-18T02:20:09.694Z,99177.34
2023-01-18T02:23:01.080Z,99103.53
2023-01-18T02:25:58.007Z,99132.88
2023-01-18T02:28:34.194Z,99153.63
2023-01-18T02:31:09.259Z,99158.66
2023-01-18T02:33:44.035Z,99153.03
2023-01-18T02:36:26.545Z,99149.38
2023-01-18T02:39:03.697Z,99151.66
2023-01-18T02:41:51.100Z,99143.72
2023-01-18T02:44:46.325Z,99155.75
2023-01-18T02:47:16.039Z,99162.09
2023-01-18T02:49:45.721Z,99129.00
2023-01-18T02:52:52.292Z,99143.50
2023-01-18T02:55:32.204Z,99134.13
2023-01-18T02:58:06.345Z,99113.84
2023-01-18T03:00:42.362Z,99131.91
2023-01-18T03:03:13.500Z,99126.41
2023-01-18T03:05:46.519Z,99125.47
2023-01-18T03:08:22.375Z,99122.81
2023-01-18T03:11:02.168Z,99112.00
2023-01-18T03:13:48.014Z,99122.88
2023-01-18T03:16:25.726Z,99074.31
2023-01-18T03:19:01.615Z,99110.28
2023-01-18T03:21:39.028Z,99111.38
2023-01-18T03:24:10.622Z,99094.19
2023-01-18T03:26:43.521Z,99119.97
2023-01-18T03:29:33.724Z,99126.72
2023-01-18T03:32:28.912Z,99137.22
2023-01-18T03:35:03.404Z,99129.41
2023-01-18T03:37:37.879Z,99144.84
2023-01-18T03:40:12.057Z,99135.75
2023-01-18T03:42:46.435Z,99123.28
2023-01-18T03:45:24.235Z,99125.81
2023-01-18T03:47:55.456Z,99139.56
2023-01-18T03:50:30.018Z,99071.88
2023-01-18T03:53:05.809Z,99133.06
2023-01-18T03:55:42.639Z,99119.22
2023-01-18T03:58:13.981Z,99121.91
2023-01-18T04:00:43.104Z,99109.03
2023-01-18T04:03:13.790Z,99139.81
2023-01-18T04:05:43.088Z,99140.06
2023-01-18T04:08:12.657Z,99129.03
2023-01-18T04:10:42.086Z,99133.50
2023-01-18T04:13:11.667Z,99048.13
2023-01-18T04:15:40.914Z,99114.03
2023-01-18T04:18:10.327Z,99074.13
2023-01-18T04:20:40.898Z,99118.59
2023-01-18T04:23:10.085Z,99120.81
2023-01-18T04:25:40.922Z,99110.19
2023-01-18T04:28:13.430Z,99093.03
2023-01-18T04:30:43.012Z,99009.56
2023-01-18T04:33:12.142Z,99124.13
2023-01-18T04:35:42.674Z,99121.81
2023-01-18T04:38:11.668Z,99078.94
2023-01-18T04:40:41.082Z,99118.97
2023-01-18T04:43:10.680Z,99124.66
2023-01-18T04:45:41.375Z,99116.31
2023-01-18T04:48:10.587Z,99113.34
2023-01-18T04:50:40.067Z,99113.25
2023-01-18T04:53:10.858Z,99080.44
2023-01-18T04:55:40.422Z,99120.22
2023-01-18T04:58:10.654Z,99097.78
2023-01-18T05:00:40.711Z,99119.47
2023-01-18T05:03:10.501Z,99094.94
2023-01-18T05:05:40.206Z,99114.28
2023-01-18T05:08:11.063Z,99117.28
2023-01-18T05:10:40.350Z,99108.44
2023-01-18T05:13:09.573Z,99092.66
2023-01-18T05:15:40.119Z,99069.53
2023-01-18T05:18:11.726Z,99104.00
2023-01-18T05:20:41.441Z,99113.50
2023-01-18T05:23:14.421Z,99098.44
2023-01-18T05:25:43.816Z,99105.41
2023-01-18T05:28:17.373Z,99094.50
2023-01-18T05:30:51.565Z,99086.78
2023-01-18T05:33:24.334Z,99082.06
2023-01-18T05:35:56.295Z,99066.81
2023-01-18T05:38:31.619Z,99080.81
2023-01-18T05:41:01.031Z,99076.78
2023-01-18T05:43:32.593Z,99080.47
2023-01-18T05:46:06.711Z,99071.50
2023-01-18T05:48:36.023Z,99064.78
2023-01-18T05:51:09.258Z,99055.84
2023-01-18T05:53:47.418Z,99059.75
2023-01-18T05:56:20.001Z,99055.16
2023-01-18T05:58:56.768Z,99040.88
2023-01-18T06:01:28.406Z,99034.28
2023-01-18T06:04:09.525Z,99024.22
2023-01-18T06:06:38.950Z,98981.31
2023-01-18T06:09:09.837Z,99037.50
2023-01-18T06:11:41.816Z,99028.97
2023-01-18T06:14:11.386Z,99038.47
2023-01-18T06:16:40.703Z,99015.34
2023-01-18T06:19:10.063Z,99040.53
2023-01-18T06:21:39.701Z,99039.09
2023-01-18T06:24:11.035Z,99028.44
2023-01-18T06:26:41.051Z,99038.25
2023-01-18T06:29:10.613Z,99040.38
2023-01-18T06:31:40.097Z,99034.63
2023-01-18T06:34:10.596Z,99038.72
2023-01-18T06:36:41.041Z,99043.44
2023-01-18T06:39:13.397Z,99024.84
2023-01-18T06:41:46.147Z,99034.50
2023-01-18T06:44:18.276Z,99036.88
2023-01-18T06:46:47.914Z,99025.16
2023-01-18T06:49:22.140Z,99027.09
2023-01-18T06:51:51.747Z,99019.81
2023-01-18T06:54:22.680Z,99024.97
2023-01-18T06:56:52.095Z,99026.25
2023-01-18T06:59:24.664Z,99012.38
2023-01-18T07:01:55.258Z,99002.06
2023-01-18T07:04:24.749Z,99008.47
2023-01-18T07:06:54.595Z,99024.56
2023-01-18T07:09:26.247Z,99017.84
2023-01-18T07:11:55.842Z,99012.25
2023-01-18T07:14:25.625Z,99016.69
2023-01-18T07:16:55.665Z,99021.47
2023-01-18T07:19:25.425Z,99022.59
2023-01-18T07:21:55.143Z,99017.41
2023-01-18T07:24:26.667Z,99012.63
2023-01-18T07:26:59.976Z,99018.81
2023-01-18T07:29:31.568Z,99018.34
2023-01-18T07:32:09.190Z,99003.53
2023-01-18T07:34:38.469Z,98969.16
2023-01-18T07:37:08.089Z,98975.31
2023-01-18T07:39:39.038Z,99004.69
2023-01-18T07:42:09.262Z,98968.31
2023-01-18T07:44:42.554Z,98974.19
2023-01-18T07:47:12.488Z,98981.63
2023-01-18T07:49:42.734Z,99000.13
2023-01-18T07:52:13.531Z,99007.16
2023-01-18T07:54:44.717Z,98990.66
2023-01-18T07:57:17.086Z,98981.41
2023-01-18T07:59:46.789Z,98977.78
2023-01-18T08:02:17.647Z,98984.38
2023-01-18T08:04:50.978Z,98994.38
2023-01-18T08:07:20.658Z,98988.94
2023-01-18T08:09:51.727Z,98990.22
2023-01-18T08:12:23.129Z,98956.44
2023-01-18T08:14:52.970Z,98956.75
2023-01-18T08:17:22.462Z,98979.41
2023-01-18T08:19:51.856Z,98971.09
2023-01-18T08:22:25.342Z,98974.69
2023-01-18T08:24:55.986Z,98887.44
2023-01-18T08:27:27.335Z,98799.13
2023-01-18T08:29:57.599Z,98943.09
2023-01-18T08:32:27.251Z,98978.47
2023-01-18T08:34:57.336Z,98966.00
2023-01-18T08:37:27.084Z,98979.88
2023-01-18T08:39:58.015Z,98914.56
2023-01-18T08:42:27.912Z,98816.47
2023-01-18T08:44:58.177Z,98937.28
2023-01-18T08:47:29.199Z,98971.53
2023-01-18T08:50:01.820Z,98905.41
2023-01-18T08:52:31.725Z,98966.56
2023-01-18T08:55:06.408Z,98968.97
2023-01-18T08:57:36.017Z,98955.44
2023-01-18T09:00:13.256Z,98957.41
2023-01-18T09:02:44.560Z,98902.63
2023-01-18T09:05:14.639Z,98925.66
2023-01-18T09:07:45.720Z,98948.81
2023-01-18T09:10:16.845Z,98951.22
2023-01-18T09:12:48.002Z,98934.25
2023-01-18T09:15:18.685Z,98934.34
2023-01-18T09:17:48.551Z,98907.41
2023-01-18T09:20:21.234Z,98918.91
2023-01-18T09:22:51.314Z,98936.47
2023-01-18T09:25:24.823Z,98909.91
2023-01-18T09:27:54.860Z,98917.69
2023-01-18T09:30:24.793Z,98921.25
2023-01-18T09:32:54.695Z,98924.09
2023-01-18T09:35:24.532Z,98915.41
2023-01-18T09:37:58.018Z,98892.72
2023-01-18T09:40:38.330Z,98883.19
2023-01-18T09:43:17.506Z,98913.19
2023-01-18T09:45:49.124Z,98921.69
2023-01-18T09:48:30.267Z,98912.59
2023-01-18T09:51:06.553Z,98928.22
2023-01-18T09:53:52.076Z,98919.16
2023-01-18T09:56:28.114Z,98896.00
2023-01-18T09:59:06.839Z,98901.78
2023-01-18T10:01:38.987Z,98894.63
2023-01-18T10:04:17.304Z,98880.69
2023-01-18T10:06:50.867Z,98911.25
2023-01-18T10:09:22.486Z,98913.13
2023-01-18T10:11:59.926Z,98824.13
2023-01-18T10:14:43.420Z,98888.03
2023-01-18T10:17:18.048Z,98790.72
2023-01-18T10:19:47.393Z,98903.91
2023-01-18T10:22:23.418Z,98890.53
2023-01-18T10:25:03.761Z,98905.91
2023-01-18T10:28:05.681Z,98901.97
2023-01-18T10:30:57.092Z,98875.41
2023-01-18T10:33:30.605Z,98881.16
2023-01-18T10:36:11.526Z,98846.03
2023-01-18T10:38:45.636Z,98730.25
2023-01-18T10:41:21.795Z,98680.31
2023-01-18T10:44:11.055Z,98796.72
2023-01-18T10:46:43.344Z,98720.81
2023-01-18T10:49:41.508Z,98696.50
2023-01-18T10:52:26.641Z,98888.19
2023-01-18T10:55:01.573Z,98879.75
2023-01-18T10:57:35.926Z,98787.13
2023-01-18T11:00:21.679Z,98770.66
2023-01-18T11:03:00.211Z,98821.03
2023-01-18T11:05:37.896Z,98807.31
2023-01-18T11:08:22.486Z,98886.34
2023-01-18T11:11:01.835Z,98869.50
2023-01-18T11:13:43.847Z,98851.22
2023-01-18T11:16:20.951Z,98864.59
2023-01-18T11:18:59.170Z,98868.94
2023-01-18T11:21:46.489Z,98874.31
2023-01-18T11:24:24.400Z,98862.88
2023-01-18T11:27:10.689Z,98795.56
2023-01-18T11:29:47.936Z,98862.28
2023-01-18T11:32:27.592Z,98879.41
2023-01-18T11:35:00.204Z,98788.75
2023-01-18T11:37:34.488Z,98684.25
2023-01-18T11:40:28.160Z,98873.84
2023-01-18T11:43:03.870Z,98839.81
2023-01-18T11:45:38.687Z,98844.47
2023-01-18T11:48:15.063Z,98866.34
2023-01-18T11:50:48.670Z,98870.91
2023-01-18T11:53:31.291Z,98854.38
2023-01-18T11:56:08.635Z,98853.69
2023-01-18T11:58:38.694Z,98857.34
2023-01-18T12:01:26.392Z,98865.34
2023-01-18T12:04:04.283Z,98830.69
2023-01-18T12:06:45.856Z,98832.34
2023-01-18T12:09:25.355Z,98838.94
2023-01-18T12:12:18.919Z,98791.22
2023-01-18T12:15:06.802Z,98819.97
2023-01-18T12:18:07.773Z,98857.81
2023-01-18T12:20:55.709Z,98853.47
2023-01-18T12:23:51.256Z,98855.28
2023-01-18T12:26:42.943Z,98785.88
2023-01-18T12:29:37.318Z,98869.19
2023-01-18T12:32:16.148Z,98860.72
2023-01-18T12:34:55.569Z,98845.53
2023-01-18T12:37:41.071Z,98850.09
2023-01-18T12:40:34.201Z,98860.72
2023-01-18T12:43:16.446Z,98842.81
2023-01-18T12:45:54.760Z,98820.75
2023-01-18T12:48:30.009Z,98858.22
2023-01-18T12:51:00.939Z,98820.97
2023-01-18T12:53:40.453Z,98848.53
2023-01-18T12:56:20.170Z,98849.81
2023-01-18T12:58:55.945Z,98858.84
2023-01-18T13:01:28.679Z,98841.28
2023-01-18T16:14:38.504Z,98767.47
2023-01-18T16:17:14.158Z,98963.69
2023-01-18T16:19:45.698Z,98947.28
2023-01-18T16:22:21.866Z,98960.66
2023-01-18T16:24:57.758Z,98944.44
2023-01-18T16:27:29.223Z,98928.31
2023-01-18T16:30:03.088Z,98964.31
2023-01-18T16:32:38.474Z,98973.09
2023-01-18T16:35:15.291Z,98952.81
2023-01-18T16:37:45.592Z,98994.91
2023-01-18T16:40:16.248Z,98960.44
2023-01-18T16:43:02.755Z,98971.53
2023-01-18T16:45:36.902Z,99002.44
2023-01-18T16:48:15.677Z,98966.19
2023-01-18T16:50:45.259Z,98986.28
2023-01-18T16:53:14.597Z,98998.78
2023-01-18T16:55:45.973Z,98950.28
2023-01-18T16:58:16.543Z,98999.06
2023-01-18T17:01:05.791Z,98999.66
2023-01-18T17:03:55.136Z,98998.59
2023-01-18T17:06:29.861Z,98924.28
2023-01-18T17:09:13.808Z,98911.13
2023-01-18T17:11:43.840Z,99011.78
2023-01-18T17:14:45.896Z,98904.50
2023-01-18T17:18:01.644Z,98873.13
2023-01-18T17:25:28.137Z,98929.19
2023-01-18T17:28:21.776Z,98986.28
2023-01-18T17:30:53.441Z,99040.44
2023-01-18T17:33:36.183Z,98994.28
2023-01-18T17:36:07.542Z,99035.72
2023-01-18T17:38:52.478Z,98942.81
2023-01-18T17:41:27.781Z,99077.59
2023-01-18T17:44:00.628Z,99052.75
2023-01-18T17:46:30.445Z,99064.84
2023-01-18T17:49:04.666Z,99059.06
2023-01-18T17:51:35.562Z,99071.22
2023-01-18T17:54:10.268Z,99065.16
2023-01-18T17:56:42.488Z,99071.34
2023-01-18T17:59:19.081Z,99078.81
2023-01-18T18:01:52.532Z,99091.66
2023-01-18T18:04:24.091Z,99091.53
2023-01-18T18:06:58.746Z,99098.16
2023-01-18T18:09:28.628Z,99099.84
2023-01-18T18:11:58.591Z,99063.63
2023-01-18T18:14:34.446Z,98998.31
2023-01-18T18:17:07.130Z,98910.22
2023-01-18T18:19:41.367Z,99138.84
2023-01-18T18:22:20.683Z,98938.44
2023-01-18T18:24:53.072Z,99080.63
2023-01-18T18:27:24.767Z,99109.38
2023-01-18T18:29:56.704Z,99118.19
2023-01-18T18:32:26.713Z,99088.69
2023-01-18T18:34:58.574Z,99095.75
2023-01-18T18:37:58.057Z,99118.41
2023-01-18T18:40:41.454Z,98923.75
2023-01-18T18:43:11.737Z,99057.38
2023-01-18T18:45:45.368Z,99084.72
2023-01-18T18:48:15.789Z,99117.91
2023-01-18T18:50:56.969Z,99099.66
2023-01-18T18:53:37.371Z,99084.41
2023-01-18T18:56:10.808Z,98993.44
2023-01-18T18:58:40.420Z,99155.50
2023-01-18T19:01:20.962Z,99130.47
2023-01-18T19:03:52.047Z,99149.44
2023-01-18T19:06:26.019Z,99159.25
2023-01-18T19:08:57.611Z,99079.47
2023-01-18T19:11:41.570Z,99077.69
2023-01-18T19:14:17.905Z,99170.38
2023-01-18T19:16:48.255Z,99075.06
2023-01-18T19:19:18.025Z,99187.56
2023-01-18T19:21:51.002Z,99157.63
2023-01-18T19:24:21.089Z,99205.44
2023-01-18T19:26:50.253Z,99205.72
2023-01-18T19:29:20.164Z,99182.06
2023-01-18T19:31:50.075Z,99220.38
2023-01-18T19:34:21.465Z,99233.13
2023-01-18T19:36:53.203Z,99241.47
2023-01-18T19:39:23.009Z,99233.78
2023-01-18T19:41:52.975Z,99232.53
2023-01-18T19:44:22.590Z,99218.41
2023-01-18T19:46:53.018Z,99239.66
2023-01-18T19:49:25.279Z,99233.56
2023-01-18T19:51:56.618Z,99232.13
2023-01-18T19:54:26.711Z,99227.44
2023-01-18T19:57:03.119Z,99213.75
2023-01-18T19:59:34.984Z,99246.09
2023-01-18T20:02:04.882Z,99236.38
2023-01-18T20:04:34.998Z,99233.78
2023-01-18T20:07:06.115Z,99284.88
2023-01-18T20:09:43.138Z,99305.53
2023-01-18T20:12:15.968Z,99252.81
2023-01-18T20:14:48.992Z,99289.91
2023-01-18T20:17:25.484Z,99320.09
2023-01-18T20:19:55.843Z,99314.72
2023-01-18T20:22:26.722Z,99331.03
2023-01-18T20:24:55.954Z,99326.53
2023-01-18T20:27:24.933Z,99282.41
2023-01-18T20:29:54.723Z,99240.38
2023-01-18T20:32:27.458Z,99315.47
2023-01-18T20:34:58.799Z,99204.09
2023-01-18T20:37:30.204Z,99278.88
2023-01-18T20:40:03.741Z,99356.50
2023-01-18T20:42:42.130Z,99352.50
2023-01-18T20:45:27.389Z,99251.56
2023-01-18T20:48:01.728Z,99378.28
2023-01-18T20:50:34.072Z,99372.13
2023-01-18T20:53:05.629Z,99375.06
2023-01-18T20:55:38.358Z,99354.22
2023-01-18T20:58:10.506Z,99381.31
2023-01-18T21:00:42.256Z,99330.66
2023-01-18T21:03:18.144Z,99390.56
2023-01-18T21:05:47.806Z,99366.06
2023-01-18T21:08:19.676Z,99333.03
2023-01-18T21:10:51.059Z,99384.00
2023-01-18T21:13:22.139Z,99284.41
2023-01-18T21:15:59.386Z,99379.41
2023-01-18T21:18:30.790Z,99360.19
2023-01-18T21:21:05.874Z,99396.59
2023-01-18T21:23:56.335Z,99394.75
2023-01-18T21:26:32.254Z,99396.28
2023-01-18T21:29:02.067Z,99390.44
2023-01-18T21:31:33.758Z,99307.19
2023-01-18T21:34:24.647Z,99278.28
2023-01-18T21:37:00.753Z,99387.09
2023-01-18T21:39:31.578Z,99400.81
2023-01-18T21:42:19.870Z,99421.03
2023-01-18T21:45:07.356Z,99425.53
2023-01-18T21:47:51.888Z,99404.19
2023-01-18T21:50:42.153Z,99301.56
2023-01-18T21:53:45.073Z,99429.28
2023-01-18T21:56:21.047Z,99432.22
2023-01-18T21:58:58.063Z,99444.25
